Time;durP1;ratioP1;P1;durP2;ratioP2;P2;SDS_P1;SDS_P2;PMS_P1;PMS_P2;Temp;Humidity;BMP_temperature;BMP_pressure;BME280_temperature;BME280_humidity;BME280_pressure;Samples;Min_cycle;Max_cycle;Signal;HPM_P1;HPM_P2
2022/01/03 00:01:39;;;;;;;6.20;5.13;;;21.70;53.00;;;;;;4973407;28;20174;-74
2022/01/03 00:04:08;;;;;;;8.32;6.45;;;21.70;53.10;;;;;;4956112;28;20653;-74
2022/01/03 00:06:36;;;;;;;7.20;6.18;;;21.70;53.10;;;;;;4956119;28;20206;-73
2022/01/03 00:09:03;;;;;;;7.50;6.20;;;21.70;53.10;;;;;;4940327;28;20220;-74
2022/01/03 00:11:29;;;;;;;7.18;5.80;;;21.70;53.10;;;;;;4940274;28;20182;-73
2022/01/03 00:13:55;;;;;;;6.85;5.63;;;21.70;53.10;;;;;;4918918;29;20243;-73
2022/01/03 00:16:23;;;;;;;7.93;5.97;;;21.70;53.10;;;;;;4952582;29;20564;-74
2022/01/03 00:18:51;;;;;;;7.00;6.00;;;21.70;53.10;;;;;;4952764;29;20636;-74
2022/01/03 00:21:19;;;;;;;7.07;5.85;;;21.70;53.10;;;;;;4953201;29;20186;-74
2022/01/03 00:23:58;;;;;;;6.75;5.60;;;21.70;53.10;;;;;;4954127;28;20189;-73
2022/01/03 00:26:27;;;;;;;5.85;5.25;;;21.70;53.10;;;;;;4936532;29;20178;-74
2022/01/03 00:29:20;;;;;;;6.43;5.82;;;21.70;53.10;;;;;;4936674;29;20289;-73
2022/01/03 00:31:46;;;;;;;7.03;5.72;;;21.70;53.10;;;;;;4940596;29;20229;-74
2022/01/03 00:34:14;;;;;;;6.20;5.60;;;21.70;53.20;;;;;;4940294;29;20311;-73
2022/01/03 00:36:44;;;;;;;6.15;5.55;;;21.70;53.10;;;;;;4972155;28;20189;-74
2022/01/03 00:39:10;;;;;;;6.07;5.47;;;21.70;53.10;;;;;;4956258;29;20221;-74
2022/01/03 00:41:42;;;;;;;6.63;5.18;;;21.70;53.10;;;;;;4940071;29;20185;-73
2022/01/03 00:44:09;;;;;;;5.88;5.25;;;21.70;53.10;;;;;;4941109;28;20196;-73
2022/01/03 00:46:35;;;;;;;7.05;6.20;;;21.70;53.10;;;;;;4939858;29;20260;-73
2022/01/03 00:49:03;;;;;;;5.60;5.00;;;21.80;53.10;;;;;;4956949;28;20202;-74
2022/01/03 00:51:30;;;;;;;5.43;4.93;;;21.70;53.10;;;;;;4956075;29;20254;-74
2022/01/03 00:53:56;;;;;;;6.13;5.25;;;21.70;53.00;;;;;;4940031;29;20191;-74
2022/01/03 00:56:44;;;;;;;6.13;5.13;;;21.70;53.10;;;;;;4955701;28;20213;-74
2022/01/03 00:59:32;;;;;;;7.22;5.05;;;21.70;53.00;;;;;;4971730;28;20238;-73
2022/01/03 01:02:01;;;;;;;6.15;5.35;;;21.70;53.00;;;;;;4940038;29;20183;-73
2022/01/03 01:04:28;;;;;;;6.20;4.80;;;21.70;53.00;;;;;;4939377;29;20190;-73
2022/01/03 01:06:58;;;;;;;6.22;5.07;;;21.70;53.00;;;;;;4955421;28;20187;-73
2022/01/03 01:09:27;;;;;;;5.72;4.57;;;21.70;53.00;;;;;;4955514;29;20310;-73
2022/01/03 01:11:57;;;;;;;6.75;4.90;;;21.70;53.10;;;;;;4939854;29;20216;-73
2022/01/03 01:14:28;;;;;;;5.38;4.28;;;21.70;53.00;;;;;;4939639;29;20209;-73
2022/01/03 01:16:55;;;;;;;6.75;5.30;;;21.70;53.10;;;;;;4955385;29;20218;-74
2022/01/03 01:19:22;;;;;;;5.07;4.57;;;21.70;53.10;;;;;;4955505;28;20210;-73
2022/01/03 01:21:52;;;;;;;6.43;5.20;;;21.70;53.10;;;;;;4955249;29;20178;-74
2022/01/03 01:24:22;;;;;;;5.47;4.88;;;21.70;53.00;;;;;;4939193;29;20577;-73
2022/01/03 01:29:37;;;;;;;5.68;4.57;;;21.70;53.00;;;;;;4955094;29;20213;-74
2022/01/03 01:32:07;;;;;;;5.82;4.90;;;21.70;53.00;;;;;;4955098;29;20205;-74
2022/01/03 01:34:39;;;;;;;5.45;4.85;;;21.70;53.00;;;;;;4955055;28;20312;-74
2022/01/03 01:37:06;;;;;;;4.93;4.45;;;21.70;53.00;;;;;;4938992;29;20190;-74
2022/01/03 01:39:36;;;;;;;5.80;4.57;;;21.70;52.90;;;;;;4955285;28;20245;-74
2022/01/03 01:42:04;;;;;;;6.63;4.90;;;21.70;53.00;;;;;;4955647;28;20186;-74
2022/01/03 01:44:37;;;;;;;4.90;4.38;;;21.70;53.00;;;;;;4942284;28;20755;-73
2022/01/03 01:47:07;;;;;;;4.95;4.43;;;21.70;53.00;;;;;;4958328;28;20177;-73
2022/01/03 01:49:44;;;;;;;4.43;4.03;;;21.70;53.00;;;;;;4942409;28;20288;-73
2022/01/03 01:52:18;;;;;;;4.43;4.00;;;21.70;53.00;;;;;;4942125;28;20177;-74
2022/01/03 01:54:59;;;;;;;5.47;4.60;;;21.70;53.00;;;;;;4942060;28;20303;-73
2022/01/03 01:58:04;;;;;;;4.72;3.75;;;21.70;53.00;;;;;;4942236;28;20216;-73
2022/01/03 02:00:59;;;;;;;4.63;4.00;;;21.70;53.00;;;;;;4957852;28;20232;-74
2022/01/03 02:03:31;;;;;;;4.45;3.97;;;21.70;53.00;;;;;;4942654;28;20178;-73
2022/01/03 02:06:32;;;;;;;4.50;4.05;;;21.70;53.00;;;;;;4942037;28;20190;-74
2022/01/03 02:09:07;;;;;;;4.30;3.88;;;21.70;53.00;;;;;;4941722;28;20206;-74
2022/01/03 02:11:50;;;;;;;4.93;3.97;;;21.70;53.00;;;;;;4941632;28;20189;-74
2022/01/03 02:14:19;;;;;;;4.75;4.00;;;21.70;53.00;;;;;;4938688;28;20339;-73
2022/01/03 02:16:45;;;;;;;4.10;3.70;;;21.70;52.90;;;;;;4938323;29;20213;-74
2022/01/03 02:19:12;;;;;;;4.20;3.80;;;21.70;52.90;;;;;;4938574;29;20261;-73
2022/01/03 02:21:39;;;;;;;4.65;4.15;;;21.70;52.90;;;;;;4938227;29;20187;-74
2022/01/03 02:24:09;;;;;;;4.55;3.97;;;21.70;53.00;;;;;;4938770;29;20183;-74
2022/01/03 02:26:38;;;;;;;4.32;3.92;;;21.70;53.00;;;;;;4954171;28;20183;-73
2022/01/03 02:29:06;;;;;;;3.67;3.30;;;21.70;53.00;;;;;;4942994;29;20214;-74
2022/01/03 02:31:33;;;;;;;4.15;3.53;;;21.70;53.00;;;;;;4922567;29;20238;-74
2022/01/03 02:34:01;;;;;;;4.05;3.65;;;21.70;53.00;;;;;;4922257;29;20273;-74
2022/01/03 02:36:31;;;;;;;4.25;3.78;;;21.70;53.00;;;;;;4921940;29;20242;-74
2022/01/03 02:38:56;;;;;;;4.65;3.72;;;21.70;53.00;;;;;;4937773;29;20206;-74
2022/01/03 02:41:23;;;;;;;4.60;3.60;;;21.70;53.00;;;;;;4922396;29;20175;-73
2022/01/03 02:43:50;;;;;;;4.38;3.95;;;21.70;53.00;;;;;;4933591;29;20182;-73
2022/01/03 02:46:16;;;;;;;5.93;3.60;;;21.70;53.60;;;;;;4957003;28;20192;-74
2022/01/03 02:48:42;;;;;;;4.90;3.67;;;21.70;53.00;;;;;;4940830;28;20326;-74
2022/01/03 02:51:11;;;;;;;5.10;3.90;;;21.70;53.00;;;;;;4941102;28;20208;-73
2022/01/03 02:53:38;;;;;;;4.15;3.33;;;21.70;53.00;;;;;;4956693;28;20185;-74
2022/01/03 02:56:05;;;;;;;4.32;3.20;;;21.70;53.00;;;;;;4972542;28;20227;-74
2022/01/03 02:58:31;;;;;;;3.78;3.45;;;21.70;53.00;;;;;;4940887;28;20212;-74
2022/01/03 03:00:58;;;;;;;4.38;3.90;;;21.70;53.00;;;;;;4957146;28;20162;-74
2022/01/03 03:03:33;;;;;;;4.18;3.78;;;21.70;53.00;;;;;;4942087;28;20193;-74
2022/01/03 03:05:59;;;;;;;3.97;3.53;;;21.70;53.00;;;;;;4940472;28;20185;-74
2022/01/03 03:08:26;;;;;;;4.45;3.38;;;21.70;53.00;;;;;;4940924;28;20208;-74
2022/01/03 03:10:52;;;;;;;3.63;3.03;;;21.70;53.00;;;;;;4940811;28;20186;-74
2022/01/03 03:13:18;;;;;;;3.60;3.15;;;21.70;53.00;;;;;;4940214;28;20653;-73
2022/01/03 03:15:44;;;;;;;3.55;3.25;;;21.70;53.00;;;;;;4925555;29;20265;-74
2022/01/03 03:18:10;;;;;;;3.38;3.00;;;21.70;53.00;;;;;;4923032;28;20222;-74
2022/01/03 03:20:37;;;;;;;3.53;2.88;;;21.70;53.00;;;;;;4956473;28;20178;-74
2022/01/03 03:23:04;;;;;;;3.33;2.97;;;21.70;53.00;;;;;;4956428;28;20182;-74
2022/01/03 03:25:35;;;;;;;4.43;3.38;;;21.70;53.00;;;;;;4956534;28;20182;-74
2022/01/03 03:28:16;;;;;;;3.70;3.15;;;21.70;53.00;;;;;;4941095;28;20213;-73
2022/01/03 03:30:47;;;;;;;4.35;3.35;;;21.70;53.00;;;;;;4972675;28;20182;-74
2022/01/03 03:33:22;;;;;;;3.42;3.13;;;21.70;53.00;;;;;;4956723;28;20196;-74
2022/01/03 03:35:57;;;;;;;3.50;2.90;;;21.70;53.60;;;;;;4941040;28;20205;-74
2022/01/03 03:38:26;;;;;;;4.57;3.72;;;21.70;53.00;;;;;;4940560;28;20213;-74
2022/01/03 03:40:58;;;;;;;3.30;3.00;;;21.70;52.90;;;;;;4956776;28;20166;-74
2022/01/03 03:43:26;;;;;;;3.72;2.92;;;21.70;52.90;;;;;;4956395;28;20170;-73
2022/01/03 03:45:52;;;;;;;3.22;2.78;;;21.70;53.00;;;;;;4936733;29;20265;-74
2022/01/03 03:48:20;;;;;;;3.22;2.92;;;21.70;52.90;;;;;;4953168;28;20264;-74
2022/01/03 03:50:47;;;;;;;3.20;2.90;;;21.70;52.90;;;;;;4937287;29;20190;-73
2022/01/03 03:53:14;;;;;;;3.33;3.03;;;21.70;52.90;;;;;;4954140;29;20197;-73
2022/01/03 03:55:40;;;;;;;3.25;2.80;;;21.70;53.00;;;;;;4936797;29;20218;-73
2022/01/03 03:58:06;;;;;;;3.45;2.92;;;21.70;52.90;;;;;;4936889;29;20249;-73
2022/01/03 04:00:34;;;;;;;3.10;2.80;;;21.70;53.00;;;;;;4937291;29;20189;-73
2022/01/03 04:03:03;;;;;;;5.20;2.80;;;21.70;53.00;;;;;;4937640;29;20217;-74
2022/01/03 04:05:31;;;;;;;3.38;2.60;;;21.70;53.00;;;;;;4941225;29;20201;-73
2022/01/03 04:07:56;;;;;;;3.13;2.80;;;21.70;52.90;;;;;;4957327;29;20210;-74
2022/01/03 04:10:22;;;;;;;3.97;2.85;;;21.70;52.90;;;;;;4940453;29;20194;-74
2022/01/03 04:12:50;;;;;;;3.45;2.80;;;21.70;52.90;;;;;;4944228;28;20205;-74
2022/01/03 04:15:17;;;;;;;3.35;2.88;;;21.70;52.90;;;;;;4943826;28;20224;-74
2022/01/03 04:17:43;;;;;;;3.20;2.60;;;21.70;52.90;;;;;;4943600;28;20205;-74
2022/01/03 04:20:10;;;;;;;3.47;2.60;;;21.70;52.90;;;;;;4944031;28;20260;-74
2022/01/03 04:22:36;;;;;;;2.92;2.40;;;21.70;52.80;;;;;;4943530;28;20188;-74
2022/01/03 04:25:03;;;;;;;2.53;2.22;;;21.70;52.90;;;;;;4943288;28;20186;-74
2022/01/03 04:27:29;;;;;;;3.28;2.60;;;21.70;52.80;;;;;;4959609;28;20287;-74
2022/01/03 04:29:54;;;;;;;3.22;2.78;;;21.70;52.80;;;;;;4959242;28;20581;-73
2022/01/03 04:32:20;;;;;;;3.15;2.72;;;21.70;52.70;;;;;;4959242;28;20244;-74
2022/01/03 04:34:46;;;;;;;2.58;2.30;;;21.70;52.90;;;;;;4959043;28;20222;-73
2022/01/03 04:37:15;;;;;;;3.35;2.65;;;21.70;52.90;;;;;;4943383;28;20178;-73
2022/01/03 04:39:42;;;;;;;3.60;2.45;;;21.70;52.70;;;;;;4943813;28;20181;-74
2022/01/03 04:42:08;;;;;;;3.72;2.80;;;21.70;53.50;;;;;;4943281;28;20181;-74
2022/01/03 04:44:35;;;;;;;2.55;2.35;;;21.60;52.80;;;;;;4958813;28;20204;-73
2022/01/03 04:47:01;;;;;;;3.08;2.65;;;21.60;52.80;;;;;;4943609;28;20186;-74
2022/01/03 04:49:27;;;;;;;3.33;2.80;;;21.60;52.80;;;;;;4943093;28;20205;-74
2022/01/03 04:51:53;;;;;;;2.55;2.28;;;21.70;52.90;;;;;;4943277;28;20650;-74
2022/01/03 04:54:19;;;;;;;3.17;2.50;;;21.70;52.80;;;;;;4974871;28;20205;-72
2022/01/03 04:56:46;;;;;;;3.13;2.80;;;21.70;52.70;;;;;;4943115;28;20190;-74
2022/01/03 04:59:12;;;;;;;3.03;2.45;;;21.60;52.60;;;;;;4942837;28;20260;-74
2022/01/03 05:01:38;;;;;;;3.40;2.63;;;21.60;52.70;;;;;;4943208;28;20182;-74
2022/01/03 05:04:04;;;;;;;3.95;2.53;;;21.60;52.60;;;;;;4943129;28;20194;-74
2022/01/03 05:06:30;;;;;;;2.97;2.38;;;21.70;52.70;;;;;;4958754;28;20264;-74
2022/01/03 05:08:56;;;;;;;2.42;2.22;;;21.60;52.60;;;;;;4958782;28;20209;-74
2022/01/03 05:11:22;;;;;;;2.25;2.00;;;21.60;52.60;;;;;;4958960;28;20183;-74
2022/01/03 05:13:48;;;;;;;3.25;2.60;;;21.60;52.60;;;;;;4958382;28;20233;-73
2022/01/03 05:16:14;;;;;;;2.75;2.22;;;21.60;52.60;;;;;;4938839;29;20210;-74
2022/01/03 05:18:40;;;;;;;2.42;2.20;;;21.70;52.60;;;;;;4939605;29;20213;-74
2022/01/03 05:21:05;;;;;;;3.08;2.58;;;21.60;52.60;;;;;;4955238;28;20579;-74
2022/01/03 05:23:34;;;;;;;2.85;2.28;;;21.60;52.60;;;;;;4939900;29;20193;-74
2022/01/03 05:26:01;;;;;;;2.40;2.15;;;21.60;52.60;;;;;;4955031;29;20190;-74
2022/01/03 05:28:28;;;;;;;2.97;2.30;;;21.70;52.60;;;;;;4939336;29;20244;-74
2022/01/03 05:30:54;;;;;;;2.38;2.17;;;21.60;52.60;;;;;;4955498;28;20338;-74
2022/01/03 05:33:20;;;;;;;2.20;2.00;;;21.60;53.20;;;;;;4939117;29;20190;-74
2022/01/03 05:35:47;;;;;;;2.35;2.05;;;21.60;52.60;;;;;;4938945;29;20739;-74
2022/01/03 05:38:13;;;;;;;3.03;2.10;;;21.60;52.60;;;;;;4938954;29;20218;-73
2022/01/03 05:40:39;;;;;;;3.00;2.50;;;21.60;52.60;;;;;;4955293;28;20202;-74
2022/01/03 05:43:05;;;;;;;2.85;2.17;;;21.60;52.60;;;;;;4940790;28;20676;-74
2022/01/03 05:45:32;;;;;;;2.75;2.17;;;21.60;52.60;;;;;;4957800;28;20683;-74
2022/01/03 05:47:58;;;;;;;2.85;2.20;;;21.60;53.20;;;;;;4941995;28;20205;-73
2022/01/03 05:50:24;;;;;;;2.30;2.10;;;21.60;52.60;;;;;;4958029;28;20342;-74
2022/01/03 05:52:51;;;;;;;2.50;2.30;;;21.60;53.20;;;;;;4942050;28;20236;-74
2022/01/03 05:55:19;;;;;;;2.15;1.73;;;21.60;52.60;;;;;;4957668;28;20209;-73
2022/01/03 05:57:45;;;;;;;2.72;2.00;;;21.60;52.60;;;;;;4957826;28;20194;-74
2022/01/03 06:00:18;;;;;;;2.55;1.70;;;21.60;52.60;;;;;;4942589;28;20569;-73
2022/01/03 06:02:44;;;;;;;2.40;2.20;;;21.60;52.60;;;;;;4943195;28;20278;-73
2022/01/03 06:05:39;;;;;;;2.97;2.13;;;21.60;52.60;;;;;;4940813;28;20189;-73
2022/01/03 06:08:05;;;;;;;2.90;1.85;;;21.60;52.60;;;;;;4949316;28;20218;-73
2022/01/03 06:10:40;;;;;;;2.58;2.22;;;21.60;52.60;;;;;;4939010;29;20273;-73
2022/01/03 06:13:08;;;;;;;2.05;1.88;;;21.60;52.60;;;;;;4955967;28;20264;-73
2022/01/03 06:15:38;;;;;;;2.03;1.80;;;21.60;52.60;;;;;;4941247;28;20673;-73
2022/01/03 06:18:10;;;;;;;2.00;1.90;;;21.60;52.60;;;;;;4957499;28;20217;-73
2022/01/03 06:20:39;;;;;;;2.97;2.22;;;21.60;52.60;;;;;;4957690;28;20248;-73
2022/01/03 06:23:06;;;;;;;2.55;2.00;;;21.60;52.60;;;;;;4941381;28;20225;-73
2022/01/03 06:25:32;;;;;;;2.30;2.10;;;21.60;52.60;;;;;;4957057;28;20273;-73
2022/01/03 06:27:58;;;;;;;2.50;2.03;;;21.60;52.60;;;;;;4940232;28;20695;-73
2022/01/03 06:30:24;;;;;;;2.20;1.90;;;21.60;52.60;;;;;;4941280;28;20185;-73
2022/01/03 06:32:51;;;;;;;2.50;1.92;;;21.60;52.60;;;;;;4957075;28;20617;-73
2022/01/03 06:35:17;;;;;;;1.75;1.55;;;21.60;52.60;;;;;;4940794;28;20217;-73
2022/01/03 06:37:43;;;;;;;2.72;1.95;;;21.60;52.60;;;;;;4940975;28;20233;-73
2022/01/03 06:40:16;;;;;;;2.10;1.90;;;21.60;52.60;;;;;;4942547;28;20188;-73
2022/01/03 06:42:42;;;;;;;3.05;1.77;;;21.60;52.60;;;;;;4953656;28;20186;-73
2022/01/03 06:45:09;;;;;;;2.85;1.85;;;21.60;52.60;;;;;;4937824;29;20186;-73
2022/01/03 06:47:35;;;;;;;2.28;1.92;;;21.60;52.60;;;;;;4953840;29;20217;-73
2022/01/03 06:50:02;;;;;;;2.50;1.98;;;21.60;52.60;;;;;;4953768;28;20191;-73
2022/01/03 06:52:28;;;;;;;2.25;1.65;;;21.60;52.60;;;;;;4937806;29;20210;-73
2022/01/03 06:54:54;;;;;;;1.60;1.50;;;21.60;52.60;;;;;;4953576;29;20242;-73
2022/01/03 06:57:20;;;;;;;1.88;1.67;;;21.60;52.60;;;;;;4937574;29;20186;-73
2022/01/03 06:59:47;;;;;;;2.45;1.85;;;21.60;52.60;;;;;;4938034;29;20199;-73
2022/01/03 07:02:13;;;;;;;2.35;1.75;;;21.60;52.60;;;;;;4937930;29;20182;-73
2022/01/03 07:04:38;;;;;;;2.70;2.00;;;21.60;52.60;;;;;;4937346;29;20685;-73
2022/01/03 07:07:05;;;;;;;2.58;2.00;;;21.60;52.60;;;;;;4937266;29;20190;-72
2022/01/03 07:09:31;;;;;;;1.95;1.77;;;21.60;52.60;;;;;;4937805;29;20205;-73
2022/01/03 07:11:58;;;;;;;1.92;1.73;;;21.60;52.60;;;;;;4937601;28;20190;-74
2022/01/03 07:19:36;;;;;;;1.95;1.60;;;21.60;52.60;;;;;;4956461;28;20185;-73
2022/01/03 07:22:05;;;;;;;2.55;2.03;;;21.60;52.60;;;;;;4940490;28;20186;-73
2022/01/03 07:24:37;;;;;;;2.63;1.90;;;21.60;52.60;;;;;;4972394;28;20208;-72
2022/01/03 07:27:06;;;;;;;3.15;1.73;;;21.60;52.60;;;;;;4972837;28;20657;-73
2022/01/03 07:29:32;;;;;;;2.38;1.60;;;21.60;52.60;;;;;;4956480;28;20186;-72
2022/01/03 07:31:58;;;;;;;1.80;1.70;;;21.60;52.60;;;;;;4940803;28;20188;-74
2022/01/03 07:34:24;;;;;;;2.92;1.80;;;21.60;52.60;;;;;;4957808;28;20189;-74
2022/01/03 07:36:50;;;;;;;1.90;1.70;;;21.60;52.60;;;;;;4935708;29;20191;-74
2022/01/03 07:39:16;;;;;;;3.08;2.10;;;21.60;52.60;;;;;;4958833;28;20210;-75
2022/01/03 07:41:42;;;;;;;2.35;1.67;;;21.60;52.60;;;;;;4960278;28;20186;-75
2022/01/03 07:44:08;;;;;;;2.30;1.70;;;21.60;52.60;;;;;;4965676;28;20185;-74
2022/01/03 07:46:34;;;;;;;2.20;1.67;;;21.60;52.60;;;;;;4947466;29;20186;-75
2022/01/03 07:49:00;;;;;;;1.60;1.50;;;21.60;52.60;;;;;;4950763;29;20198;-74
2022/01/03 07:51:26;;;;;;;1.65;1.50;;;21.60;52.60;;;;;;4967327;29;20235;-72
2022/01/03 07:53:51;;;;;;;2.38;1.60;;;21.60;52.60;;;;;;4953376;29;20182;-75
2022/01/03 07:56:20;;;;;;;2.13;1.77;;;21.60;52.60;;;;;;4944954;29;20214;-75
2022/01/03 07:58:47;;;;;;;2.28;1.65;;;21.70;52.60;;;;;;4948675;28;20269;-75
2022/01/03 08:01:13;;;;;;;2.80;1.85;;;21.70;52.60;;;;;;4959359;28;20193;-74
2022/01/03 08:03:39;;;;;;;1.55;1.45;;;21.70;52.60;;;;;;4928308;29;20194;-74
2022/01/03 08:06:08;;;;;;;2.65;1.60;;;21.60;52.60;;;;;;4961139;28;20196;-75
2022/01/03 08:08:35;;;;;;;1.70;1.50;;;21.70;52.60;;;;;;4944294;29;20206;-75
2022/01/03 08:11:01;;;;;;;3.00;1.77;;;21.70;52.60;;;;;;4960335;28;20179;-74
2022/01/03 08:13:26;;;;;;;1.70;1.60;;;21.70;52.60;;;;;;4962093;28;20182;-74
2022/01/03 08:15:52;;;;;;;1.77;1.25;;;21.60;52.60;;;;;;4943172;29;20701;-72
2022/01/03 08:18:18;;;;;;;2.75;1.60;;;21.70;52.60;;;;;;4957298;28;20210;-72
2022/01/03 08:20:44;;;;;;;1.60;1.50;;;21.60;52.60;;;;;;4962540;28;20196;-72
2022/01/03 08:23:10;;;;;;;2.08;1.60;;;21.70;52.70;;;;;;4959390;28;20186;-73
2022/01/03 08:25:38;;;;;;;3.03;1.50;;;21.70;52.70;;;;;;4946236;28;20189;-73
2022/01/03 08:28:09;;;;;;;1.95;1.60;;;21.60;52.60;;;;;;4962321;28;20205;-73
2022/01/03 08:30:36;;;;;;;2.30;1.67;;;21.70;52.60;;;;;;4946734;28;20197;-73
2022/01/03 08:33:03;;;;;;;2.97;1.48;;;21.60;52.60;;;;;;4962277;28;20232;-73
2022/01/03 08:35:30;;;;;;;2.40;1.50;;;21.70;52.60;;;;;;4962315;28;20217;-73
2022/01/03 08:37:58;;;;;;;1.52;1.38;;;21.70;52.60;;;;;;4946080;28;20310;-73
2022/01/03 08:40:25;;;;;;;1.75;1.30;;;21.60;53.20;;;;;;4962439;28;20177;-73
2022/01/03 08:42:51;;;;;;;1.80;1.30;;;21.70;52.70;;;;;;4959131;29;20270;-74
2022/01/03 08:45:18;;;;;;;2.67;1.70;;;21.70;52.60;;;;;;4942638;29;20190;-73
2022/01/03 08:47:45;;;;;;;1.63;1.40;;;21.70;52.60;;;;;;4943084;28;20213;-73
2022/01/03 08:50:11;;;;;;;1.98;1.60;;;21.70;52.60;;;;;;4941246;29;20194;-73
2022/01/03 08:52:37;;;;;;;2.85;1.48;;;21.70;52.60;;;;;;4937193;29;20194;-73
2022/01/03 08:55:04;;;;;;;1.85;1.45;;;21.70;52.60;;;;;;4939558;29;20214;-73
2022/01/03 08:57:30;;;;;;;2.63;1.58;;;21.70;52.60;;;;;;4955762;29;20210;-73
2022/01/03 08:59:56;;;;;;;2.15;1.50;;;21.70;52.70;;;;;;4924032;28;20241;-73
2022/01/03 09:02:22;;;;;;;2.22;1.80;;;21.70;52.60;;;;;;4942724;28;20205;-74
2022/01/03 09:04:47;;;;;;;1.50;1.40;;;21.70;52.70;;;;;;4942787;28;20193;-73
2022/01/03 09:07:14;;;;;;;2.22;1.33;;;21.60;52.60;;;;;;4949264;28;20244;-73
2022/01/03 09:09:40;;;;;;;2.00;1.30;;;21.70;52.60;;;;;;4958949;28;20194;-73
2022/01/03 09:12:07;;;;;;;2.70;1.50;;;21.70;52.70;;;;;;4924772;29;20253;-73
2022/01/03 09:14:35;;;;;;;1.40;1.30;;;21.70;52.60;;;;;;4939133;29;20355;-73
2022/01/03 09:17:02;;;;;;;1.65;1.50;;;21.70;52.60;;;;;;4924075;29;20183;-73
2022/01/03 09:19:28;;;;;;;2.28;1.55;;;21.70;52.60;;;;;;4923654;29;20269;-72
2022/01/03 09:22:10;;;;;;;2.08;1.52;;;21.70;52.70;;;;;;4939529;29;20187;-73
2022/01/03 09:30:13;;;;;;;2.13;1.58;;;21.70;52.70;;;;;;4936228;29;20262;-76
2022/01/03 09:32:39;;;;;;;3.00;1.52;;;21.70;52.60;;;;;;4920196;29;20191;-76
2022/01/03 09:35:07;;;;;;;1.60;1.30;;;21.70;52.60;;;;;;4904432;29;20234;-76
2022/01/03 09:37:35;;;;;;;2.83;1.52;;;21.70;52.60;;;;;;4920026;29;20702;-76
2022/01/03 09:40:04;;;;;;;2.35;1.40;;;21.70;52.60;;;;;;4935902;29;20221;-75
2022/01/03 09:42:33;;;;;;;1.55;1.45;;;21.70;52.70;;;;;;4935854;29;20186;-76
2022/01/03 09:45:05;;;;;;;1.23;1.13;;;21.70;53.20;;;;;;4936182;29;20214;-73
2022/01/03 09:47:33;;;;;;;3.63;1.60;;;21.70;52.60;;;;;;4935716;29;20215;-72
2022/01/03 09:50:00;;;;;;;3.72;1.48;;;21.70;52.60;;;;;;4935689;29;20215;-73
2022/01/03 09:52:27;;;;;;;3.08;1.40;;;21.60;52.60;;;;;;4926926;28;20201;-72
2022/01/03 09:54:55;;;;;;;1.70;1.40;;;21.70;52.60;;;;;;4951762;28;20253;-72
2022/01/03 09:57:22;;;;;;;1.70;1.48;;;21.70;52.50;;;;;;4938814;28;20214;-72
2022/01/03 09:59:49;;;;;;;1.98;1.30;;;21.70;52.60;;;;;;4922849;29;20182;-72
2022/01/03 10:02:17;;;;;;;1.63;1.38;;;21.70;52.60;;;;;;4922700;29;20205;-72
2022/01/03 10:04:43;;;;;;;2.55;1.50;;;21.70;52.50;;;;;;4922770;29;20195;-72
2022/01/03 10:07:11;;;;;;;1.50;1.10;;;21.70;52.40;;;;;;4921079;29;20601;-71
2022/01/03 10:09:42;;;;;;;2.65;1.30;;;21.70;52.40;;;;;;4919344;29;20194;-72
2022/01/03 10:12:17;;;;;;;1.70;1.17;;;21.70;52.40;;;;;;4938245;28;20189;-72
2022/01/03 10:14:43;;;;;;;2.60;1.40;;;21.70;52.40;;;;;;4954100;28;20214;-72
2022/01/03 10:17:11;;;;;;;1.90;1.05;;;21.70;52.40;;;;;;4954509;29;20186;-71
2022/01/03 10:20:13;;;;;;;2.35;1.35;;;21.70;52.40;;;;;;4938542;29;20182;-71
2022/01/03 10:22:42;;;;;;;2.38;1.63;;;21.70;52.40;;;;;;4928379;29;20187;-73
2022/01/03 10:25:24;;;;;;;2.97;1.42;;;21.70;52.50;;;;;;4935954;28;20201;-73
2022/01/03 10:27:54;;;;;;;1.77;1.00;;;21.70;52.40;;;;;;4974954;28;20217;-73
2022/01/03 10:30:41;;;;;;;1.83;1.20;;;21.70;52.50;;;;;;4941491;28;20189;-72
2022/01/03 10:33:12;;;;;;;2.75;1.20;;;21.70;52.40;;;;;;4957355;28;20661;-73
2022/01/03 10:35:43;;;;;;;1.10;1.00;;;21.70;52.50;;;;;;4957268;28;20292;-73
2022/01/03 10:38:10;;;;;;;1.90;1.30;;;21.70;52.50;;;;;;4940844;28;20217;-73
2022/01/03 10:40:37;;;;;;;2.40;1.58;;;21.70;52.50;;;;;;4941294;28;20197;-73
2022/01/03 10:43:19;;;;;;;1.70;1.20;;;21.70;52.40;;;;;;4973193;28;20178;-73
2022/01/03 10:45:47;;;;;;;2.60;1.30;;;21.70;52.50;;;;;;4957020;28;20609;-73
2022/01/03 10:48:34;;;;;;;2.13;1.30;;;21.70;52.40;;;;;;4957036;28;20229;-73
2022/01/03 10:51:02;;;;;;;2.88;1.20;;;21.60;52.20;;;;;;4957645;28;20213;-73
2022/01/03 10:53:45;;;;;;;1.33;1.10;;;21.70;52.40;;;;;;4966915;28;20190;-75
2022/01/03 10:56:36;;;;;;;1.38;1.10;;;21.70;52.50;;;;;;4938671;29;20711;-74
2022/01/03 10:59:23;;;;;;;2.42;1.30;;;21.70;52.40;;;;;;4954572;28;20221;-73
2022/01/03 11:01:58;;;;;;;2.72;1.45;;;21.70;52.40;;;;;;4938362;29;20284;-73
2022/01/03 11:04:33;;;;;;;2.97;1.23;;;21.70;52.40;;;;;;4937566;29;20193;-72
2022/01/03 11:13:20;;;;;;;1.15;1.05;;;21.70;52.40;;;;;;4937194;28;20277;-73
2022/01/03 11:15:59;;;;;;;2.25;1.33;;;21.70;52.50;;;;;;4943214;28;20344;-73
2022/01/03 11:18:31;;;;;;;2.10;1.40;;;21.70;52.40;;;;;;4949538;28;20216;-73
2022/01/03 11:21:24;;;;;;;3.28;1.25;;;21.70;52.40;;;;;;4940605;29;20634;-73
2022/01/03 11:24:10;;;;;;;2.08;1.10;;;21.70;52.40;;;;;;4949529;29;20182;-73
2022/01/03 11:26:49;;;;;;;1.95;1.02;;;21.70;52.40;;;;;;4918387;29;20183;-73
2022/01/03 11:29:18;;;;;;;1.50;1.40;;;21.70;52.40;;;;;;4932765;29;20222;-73
2022/01/03 11:31:47;;;;;;;2.00;1.20;;;21.70;52.40;;;;;;4919191;29;20254;-74
2022/01/03 11:34:13;;;;;;;1.38;1.10;;;21.70;52.40;;;;;;4919691;29;20286;-73
2022/01/03 11:36:41;;;;;;;1.85;1.30;;;21.70;52.40;;;;;;4919872;29;20254;-73
2022/01/03 11:39:11;;;;;;;2.28;1.50;;;21.70;52.30;;;;;;4934192;29;20221;-74
2022/01/03 11:41:43;;;;;;;1.38;1.27;;;21.70;52.40;;;;;;4960870;29;20186;-74
2022/01/03 11:44:12;;;;;;;2.05;1.40;;;21.70;52.30;;;;;;4942261;29;20206;-74
2022/01/03 11:46:40;;;;;;;2.28;1.13;;;21.70;52.30;;;;;;4939224;29;20277;-73
2022/01/03 11:49:07;;;;;;;2.03;1.17;;;21.70;52.30;;;;;;4939469;29;20221;-73
2022/01/03 11:51:35;;;;;;;0.98;0.90;;;21.70;52.20;;;;;;4937266;29;20186;-73
2022/01/03 11:54:06;;;;;;;1.17;0.80;;;21.60;52.20;;;;;;4951296;28;20191;-73
2022/01/03 11:56:37;;;;;;;1.50;1.00;;;21.70;52.30;;;;;;4956174;28;20220;-73
2022/01/03 12:04:58;;;;;;;1.90;1.10;;;21.70;52.30;;;;;;4955941;28;20212;-73
2022/01/03 12:07:24;;;;;;;1.98;1.20;;;21.70;52.30;;;;;;4972461;28;20170;-73
2022/01/03 12:09:50;;;;;;;1.25;0.98;;;21.70;52.30;;;;;;4929515;29;20199;-74
2022/01/03 12:12:31;;;;;;;3.58;1.15;;;21.70;52.20;;;;;;4948888;29;20209;-73
2022/01/03 12:14:59;;;;;;;1.33;1.00;;;21.70;52.20;;;;;;4934040;28;20384;-73
2022/01/03 12:17:42;;;;;;;1.48;1.02;;;21.70;52.30;;;;;;4945719;29;20330;-73
2022/01/03 12:20:09;;;;;;;1.27;1.05;;;21.70;52.20;;;;;;4937198;29;20179;-74
2022/01/03 12:22:51;;;;;;;1.35;0.93;;;21.70;52.20;;;;;;4936868;29;20269;-72
2022/01/03 12:25:33;;;;;;;1.95;1.30;;;21.70;52.20;;;;;;4952750;28;20194;-73
2022/01/03 12:28:03;;;;;;;1.25;0.80;;;21.70;52.20;;;;;;4956297;28;20268;-73
2022/01/03 12:30:35;;;;;;;2.45;1.42;;;21.70;52.20;;;;;;4956202;29;20195;-73
2022/01/03 12:33:07;;;;;;;1.25;0.88;;;21.70;52.20;;;;;;4956252;29;20190;-72
2022/01/03 12:35:43;;;;;;;1.15;1.00;;;21.70;52.20;;;;;;4956147;29;20222;-73
2022/01/03 12:38:15;;;;;;;1.60;1.00;;;21.70;52.20;;;;;;4940320;29;20233;-73
2022/01/03 12:40:53;;;;;;;1.30;0.95;;;21.70;52.10;;;;;;4940404;29;20210;-73
2022/01/03 12:43:39;;;;;;;1.48;0.88;;;21.70;52.10;;;;;;4956464;28;20189;-73
2022/01/03 12:46:15;;;;;;;1.05;0.95;;;21.70;52.10;;;;;;4941521;28;20189;-73
2022/01/03 12:48:41;;;;;;;2.03;0.90;;;21.70;52.10;;;;;;4959319;28;20217;-73
2022/01/03 12:51:12;;;;;;;1.80;1.10;;;21.70;52.10;;;;;;4943069;28;20194;-73
2022/01/03 12:53:43;;;;;;;1.38;0.93;;;21.70;52.10;;;;;;4959195;28;20190;-73
2022/01/03 12:56:26;;;;;;;1.52;1.00;;;21.70;52.10;;;;;;4943187;28;20684;-73
2022/01/03 12:58:56;;;;;;;3.53;1.05;;;21.70;52.10;;;;;;4959106;28;20205;-73
2022/01/03 13:01:27;;;;;;;1.38;0.90;;;21.70;52.10;;;;;;4959093;28;20599;-74
2022/01/03 13:04:20;;;;;;;1.17;1.00;;;21.70;52.10;;;;;;4958830;28;20571;-73
2022/01/03 13:06:47;;;;;;;1.10;1.00;;;21.70;52.10;;;;;;4942843;28;20221;-73
2022/01/03 13:09:13;;;;;;;1.00;0.93;;;21.70;52.10;;;;;;4958805;28;20304;-72
2022/01/03 13:11:46;;;;;;;1.48;1.08;;;21.70;52.10;;;;;;4958062;28;20185;-72
2022/01/03 13:14:21;;;;;;;1.60;1.00;;;21.70;52.10;;;;;;4971434;28;20178;-71
2022/01/03 13:16:58;;;;;;;1.23;1.13;;;21.70;52.10;;;;;;4958606;28;20189;-73
2022/01/03 13:19:36;;;;;;;1.13;1.00;;;21.70;52.10;;;;;;4920739;29;20238;-73
2022/01/03 13:22:07;;;;;;;1.20;0.98;;;21.70;52.10;;;;;;4920767;29;20183;-73
2022/01/03 13:24:38;;;;;;;1.55;0.95;;;21.70;52.00;;;;;;4920377;29;20186;-72
2022/01/03 13:27:22;;;;;;;2.35;1.23;;;21.70;52.00;;;;;;4920437;29;20191;-72